Aviation Digital Data Service (ADDS)

Output produced by METARs form (2225 UTC 16 February 2019)
found at http://www.aviationweather.gov/metar/data/
 
Forecast for: DNMM (LAGOS/IKEJA , NG)
Text: TAF DNMM 161530Z 1618/1724 17003KT 4000 HZ NSC
Forecast period: 1800 UTC 16 February 2019 to 0000 UTC 18 February 2019
Forecast type: FROM: standard forecast or significant change
Winds: from the S (170 degrees) at 3 MPH (3 knots; 1.5 m/s)
Visibility: 2.49 miles (4.01 km)
Ceiling: unknown
Clouds: missing
Weather: HZ  (haze)
Text: TEMPO 1705/1709 VRB02KT 2000
Forecast period: 0500 to 0900 UTC 17 February 2019
Forecast type: TEMPORARY: The following changes expected for less than half the time period
Winds: variable direction winds at 2 MPH (2 knots; 1.0 m/s)
Visibility: 1.24 miles (2.00 km)
Ceiling: unknown
Clouds: missing
Weather: no significant weather forecast for this period
Text: PROB30 1706/1708 1000 BR
Forecast period: 0600 to 0800 UTC 17 February 2019
Forecast type: PROBABLE: 30 percent likelihood of the following during this time
Visibility: 0.62 miles (1.00 km)
Ceiling: unknown
Clouds: missing
Weather: BR  (mist)